KLPC/LPC METAR and TAF weather

Enter ICAO airport designator
Station Type Date Time Source
KLPC METAR 2018/12/11 17:56 UTC NOAA

KLPC 111756Z AUTO 00000KT 10SM CLR 11/06 A3012 RMK AO2 SLPNO 6//// T01060061 51007


Station Type Date Time Source
KLPC Decoded METAR 2018/12/11 17:56 UTC NOAA

Lompoc, Lompoc Airport, CA, United States (KLPC) 34-40N 120-28W
Dec 11, 2018 - 12:56 PM EST / 2018.12.11 1756 UTC
Wind: Calm:0
Visibility: 10 mile(s):0
Sky conditions: clear
Temperature: 51.1 F (10.6 C)
Dew Point: 43.0 F (6.1 C)
Relative Humidity: 73%
Pressure (altimeter): 30.12 in. Hg (1019 hPa)
Pressure tendency: 0.02 inches (0.7 hPa) higher than three hours ago
ob: KLPC 111756Z AUTO 00000KT 10SM CLR 11/06 A3012 RMK AO2 SLPNO 6//// T01060061 51007
cycle: 18

Station Type Date Time Source
KLPC TAF UTC NOAA

Error!


Example: see airport list